sensor_id;sensor_type;location;lat;lon;timestamp;temperature;humidity
29093;DHT22;16167;48.768;14.984;2023-12-22T00:00:39;3.80;4.80
29093;DHT22;16167;48.768;14.984;2023-12-22T00:03:07;3.70;9.90
29093;DHT22;16167;48.768;14.984;2023-12-22T00:05:36;3.70;1.90
29093;DHT22;16167;48.768;14.984;2023-12-22T00:08:05;3.70;1.00
29093;DHT22;16167;48.768;14.984;2023-12-22T00:10:33;3.60;1.00
29093;DHT22;16167;48.768;14.984;2023-12-22T00:13:02;3.70;1.00
29093;DHT22;16167;48.768;14.984;2023-12-22T00:15:32;3.60;3.80
29093;DHT22;16167;48.768;14.984;2023-12-22T00:18:00;3.70;1.80
29093;DHT22;16167;48.768;14.984;2023-12-22T00:20:28;3.70;2.10
29093;DHT22;16167;48.768;14.984;2023-12-22T00:22:57;3.70;1.00
29093;DHT22;16167;48.768;14.984;2023-12-22T00:25:25;3.70;4.50
29093;DHT22;16167;48.768;14.984;2023-12-22T00:27:53;3.70;6.40
29093;DHT22;16167;48.768;14.984;2023-12-22T00:30:22;3.70;8.40
29093;DHT22;16167;48.768;14.984;2023-12-22T00:32:52;3.70;6.90
29093;DHT22;16167;48.768;14.984;2023-12-22T00:35:21;3.70;3.70
29093;DHT22;16167;48.768;14.984;2023-12-22T00:37:49;3.70;1.00
29093;DHT22;16167;48.768;14.984;2023-12-22T00:40:18;3.70;1.00
29093;DHT22;16167;48.768;14.984;2023-12-22T00:42:46;3.70;1.00
29093;DHT22;16167;48.768;14.984;2023-12-22T00:45:15;3.60;4.60
29093;DHT22;16167;48.768;14.984;2023-12-22T00:47:43;3.70;14.70
29093;DHT22;16167;48.768;14.984;2023-12-22T00:50:14;3.70;12.30
29093;DHT22;16167;48.768;14.984;2023-12-22T00:52:43;3.70;10.60
29093;DHT22;16167;48.768;14.984;2023-12-22T00:55:12;3.70;11.00
29093;DHT22;16167;48.768;14.984;2023-12-22T00:57:41;3.60;10.80
29093;DHT22;16167;48.768;14.984;2023-12-22T01:00:10;3.60;9.20
29093;DHT22;16167;48.768;14.984;2023-12-22T01:02:39;3.60;9.60
29093;DHT22;16167;48.768;14.984;2023-12-22T01:05:07;3.60;17.00
29093;DHT22;16167;48.768;14.984;2023-12-22T01:07:39;3.70;33.00
29093;DHT22;16167;48.768;14.984;2023-12-22T01:10:08;3.70;26.10
29093;DHT22;16167;48.768;14.984;2023-12-22T01:12:36;3.60;16.70
29093;DHT22;16167;48.768;14.984;2023-12-22T01:15:06;3.60;19.60
29093;DHT22;16167;48.768;14.984;2023-12-22T01:17:35;3.60;8.00
29093;DHT22;16167;48.768;14.984;2023-12-22T01:20:06;3.50;14.40
29093;DHT22;16167;48.768;14.984;2023-12-22T01:22:34;3.50;20.80
29093;DHT22;16167;48.768;14.984;2023-12-22T01:25:08;3.50;23.70
29093;DHT22;16167;48.768;14.984;2023-12-22T01:27:36;3.50;20.10
29093;DHT22;16167;48.768;14.984;2023-12-22T01:30:06;3.50;18.50
29093;DHT22;16167;48.768;14.984;2023-12-22T01:32:34;3.40;18.80
29093;DHT22;16167;48.768;14.984;2023-12-22T01:35:04;3.40;19.10
29093;DHT22;16167;48.768;14.984;2023-12-22T01:37:36;3.40;19.60
29093;DHT22;16167;48.768;14.984;2023-12-22T01:40:08;3.40;18.30
29093;DHT22;16167;48.768;14.984;2023-12-22T01:42:38;3.40;19.00
29093;DHT22;16167;48.768;14.984;2023-12-22T01:45:07;3.30;20.60
29093;DHT22;16167;48.768;14.984;2023-12-22T01:47:37;3.40;21.50
29093;DHT22;16167;48.768;14.984;2023-12-22T01:50:07;3.30;18.90
29093;DHT22;16167;48.768;14.984;2023-12-22T01:52:38;3.30;26.80
29093;DHT22;16167;48.768;14.984;2023-12-22T01:55:09;3.30;24.30
29093;DHT22;16167;48.768;14.984;2023-12-22T01:57:39;3.30;24.90
29093;DHT22;16167;48.768;14.984;2023-12-22T02:00:08;3.30;24.30
29093;DHT22;16167;48.768;14.984;2023-12-22T02:02:37;3.20;29.40
29093;DHT22;16167;48.768;14.984;2023-12-22T02:05:06;3.20;28.90
29093;DHT22;16167;48.768;14.984;2023-12-22T02:07:37;3.20;28.90
29093;DHT22;16167;48.768;14.984;2023-12-22T02:10:09;3.20;28.90
29093;DHT22;16167;48.768;14.984;2023-12-22T02:12:38;3.20;24.50
29093;DHT22;16167;48.768;14.984;2023-12-22T02:15:07;3.10;19.70
29093;DHT22;16167;48.768;14.984;2023-12-22T02:17:43;3.10;16.90
29093;DHT22;16167;48.768;14.984;2023-12-22T02:20:13;3.00;16.90
29093;DHT22;16167;48.768;14.984;2023-12-22T02:22:43;3.00;13.70
29093;DHT22;16167;48.768;14.984;2023-12-22T02:25:13;3.00;12.80
29093;DHT22;16167;48.768;14.984;2023-12-22T02:27:46;3.00;14.00
29093;DHT22;16167;48.768;14.984;2023-12-22T02:30:22;3.00;11.20
29093;DHT22;16167;48.768;14.984;2023-12-22T02:32:54;3.00;12.70
29093;DHT22;16167;48.768;14.984;2023-12-22T02:35:26;2.90;10.20
29093;DHT22;16167;48.768;14.984;2023-12-22T02:37:57;2.90;10.60
29093;DHT22;16167;48.768;14.984;2023-12-22T02:40:27;3.00;11.80
29093;DHT22;16167;48.768;14.984;2023-12-22T02:42:56;3.00;13.80
29093;DHT22;16167;48.768;14.984;2023-12-22T02:45:24;3.00;15.30
29093;DHT22;16167;48.768;14.984;2023-12-22T02:47:53;3.10;18.10
29093;DHT22;16167;48.768;14.984;2023-12-22T02:50:21;3.00;12.60
29093;DHT22;16167;48.768;14.984;2023-12-22T02:52:49;3.00;18.20
29093;DHT22;16167;48.768;14.984;2023-12-22T02:55:20;3.10;32.70
29093;DHT22;16167;48.768;14.984;2023-12-22T02:57:48;3.10;35.50
29093;DHT22;16167;48.768;14.984;2023-12-22T03:00:17;3.10;30.50
29093;DHT22;16167;48.768;14.984;2023-12-22T03:02:45;3.00;26.00
29093;DHT22;16167;48.768;14.984;2023-12-22T03:05:13;3.00;26.70
29093;DHT22;16167;48.768;14.984;2023-12-22T03:07:42;2.90;30.80
29093;DHT22;16167;48.768;14.984;2023-12-22T03:10:10;2.90;32.10
29093;DHT22;16167;48.768;14.984;2023-12-22T03:12:40;2.80;29.80
29093;DHT22;16167;48.768;14.984;2023-12-22T03:15:10;2.80;31.70
29093;DHT22;16167;48.768;14.984;2023-12-22T03:17:38;2.80;35.30
29093;DHT22;16167;48.768;14.984;2023-12-22T03:20:07;2.80;35.90
29093;DHT22;16167;48.768;14.984;2023-12-22T03:22:36;2.80;36.40
29093;DHT22;16167;48.768;14.984;2023-12-22T03:25:05;2.80;35.30
29093;DHT22;16167;48.768;14.984;2023-12-22T03:27:33;2.80;40.40
29093;DHT22;16167;48.768;14.984;2023-12-22T03:30:04;2.80;38.10
29093;DHT22;16167;48.768;14.984;2023-12-22T03:32:32;2.80;28.50
29093;DHT22;16167;48.768;14.984;2023-12-22T03:35:01;2.80;33.70
29093;DHT22;16167;48.768;14.984;2023-12-22T03:37:29;2.80;41.20
29093;DHT22;16167;48.768;14.984;2023-12-22T03:39:58;2.80;38.00
29093;DHT22;16167;48.768;14.984;2023-12-22T03:42:26;2.80;39.90
29093;DHT22;16167;48.768;14.984;2023-12-22T03:44:54;2.80;42.90
29093;DHT22;16167;48.768;14.984;2023-12-22T03:47:24;2.80;46.60
29093;DHT22;16167;48.768;14.984;2023-12-22T03:49:53;2.80;51.30
29093;DHT22;16167;48.768;14.984;2023-12-22T03:52:21;2.90;49.50
29093;DHT22;16167;48.768;14.984;2023-12-22T03:54:49;2.80;49.90
29093;DHT22;16167;48.768;14.984;2023-12-22T03:57:19;2.90;48.20
29093;DHT22;16167;48.768;14.984;2023-12-22T03:59:47;2.80;41.30
29093;DHT22;16167;48.768;14.984;2023-12-22T04:02:16;2.80;43.10
29093;DHT22;16167;48.768;14.984;2023-12-22T04:04:46;2.80;43.30
29093;DHT22;16167;48.768;14.984;2023-12-22T04:07:14;2.90;43.40
29093;DHT22;16167;48.768;14.984;2023-12-22T04:09:43;2.90;43.60
29093;DHT22;16167;48.768;14.984;2023-12-22T04:12:10;3.00;51.80
29093;DHT22;16167;48.768;14.984;2023-12-22T04:14:38;3.00;51.00
29093;DHT22;16167;48.768;14.984;2023-12-22T04:17:08;3.10;53.20
29093;DHT22;16167;48.768;14.984;2023-12-22T04:19:36;3.10;55.80
29093;DHT22;16167;48.768;14.984;2023-12-22T04:22:06;3.20;55.00
29093;DHT22;16167;48.768;14.984;2023-12-22T04:24:35;3.20;59.50
29093;DHT22;16167;48.768;14.984;2023-12-22T04:27:03;3.20;59.30
29093;DHT22;16167;48.768;14.984;2023-12-22T04:29:32;3.10;59.10
29093;DHT22;16167;48.768;14.984;2023-12-22T04:32:00;3.10;60.90
29093;DHT22;16167;48.768;14.984;2023-12-22T04:34:28;3.20;60.50
29093;DHT22;16167;48.768;14.984;2023-12-22T04:36:57;3.20;61.40
29093;DHT22;16167;48.768;14.984;2023-12-22T04:39:29;3.20;62.70
29093;DHT22;16167;48.768;14.984;2023-12-22T04:41:57;3.20;64.30
29093;DHT22;16167;48.768;14.984;2023-12-22T04:44:27;3.10;64.90
29093;DHT22;16167;48.768;14.984;2023-12-22T04:46:55;3.10;63.90
29093;DHT22;16167;48.768;14.984;2023-12-22T04:49:24;3.10;65.70
29093;DHT22;16167;48.768;14.984;2023-12-22T04:51:54;3.10;67.00
29093;DHT22;16167;48.768;14.984;2023-12-22T04:54:26;3.20;68.10
29093;DHT22;16167;48.768;14.984;2023-12-22T04:56:56;3.20;67.60
29093;DHT22;16167;48.768;14.984;2023-12-22T04:59:24;3.20;66.40
29093;DHT22;16167;48.768;14.984;2023-12-22T05:01:54;3.20;65.50
29093;DHT22;16167;48.768;14.984;2023-12-22T05:04:22;3.20;66.70
29093;DHT22;16167;48.768;14.984;2023-12-22T05:06:51;3.10;65.80
29093;DHT22;16167;48.768;14.984;2023-12-22T05:09:19;3.10;66.20
29093;DHT22;16167;48.768;14.984;2023-12-22T05:11:47;3.10;66.20
29093;DHT22;16167;48.768;14.984;2023-12-22T05:14:17;3.20;64.30
29093;DHT22;16167;48.768;14.984;2023-12-22T05:16:45;3.20;65.20
29093;DHT22;16167;48.768;14.984;2023-12-22T05:19:20;3.10;63.60
29093;DHT22;16167;48.768;14.984;2023-12-22T05:21:48;3.10;55.60
29093;DHT22;16167;48.768;14.984;2023-12-22T05:24:16;3.10;55.20
29093;DHT22;16167;48.768;14.984;2023-12-22T05:26:45;3.20;56.40
29093;DHT22;16167;48.768;14.984;2023-12-22T05:29:13;3.20;54.40
29093;DHT22;16167;48.768;14.984;2023-12-22T05:31:43;3.20;51.70
29093;DHT22;16167;48.768;14.984;2023-12-22T05:34:12;3.20;51.80
29093;DHT22;16167;48.768;14.984;2023-12-22T05:36:40;3.20;41.10
29093;DHT22;16167;48.768;14.984;2023-12-22T05:39:08;3.20;39.00
29093;DHT22;16167;48.768;14.984;2023-12-22T05:41:37;3.20;26.00
29093;DHT22;16167;48.768;14.984;2023-12-22T05:44:06;3.10;1.50
29093;DHT22;16167;48.768;14.984;2023-12-22T05:46:36;3.10;1.00
29093;DHT22;16167;48.768;14.984;2023-12-22T05:49:06;3.10;3.30
29093;DHT22;16167;48.768;14.984;2023-12-22T05:51:38;3.00;1.00
29093;DHT22;16167;48.768;14.984;2023-12-22T05:54:07;3.00;1.00
29093;DHT22;16167;48.768;14.984;2023-12-22T05:56:37;3.00;1.00
29093;DHT22;16167;48.768;14.984;2023-12-22T05:59:08;3.10;1.00
29093;DHT22;16167;48.768;14.984;2023-12-22T06:01:37;3.10;1.00
29093;DHT22;16167;48.768;14.984;2023-12-22T06:04:08;3.10;1.00
29093;DHT22;16167;48.768;14.984;2023-12-22T06:06:37;3.10;1.00
29093;DHT22;16167;48.768;14.984;2023-12-22T06:09:06;3.00;1.40
29093;DHT22;16167;48.768;14.984;2023-12-22T06:11:34;3.00;4.20
29093;DHT22;16167;48.768;14.984;2023-12-22T06:14:03;2.90;3.70
29093;DHT22;16167;48.768;14.984;2023-12-22T06:16:31;3.00;13.80
29093;DHT22;16167;48.768;14.984;2023-12-22T06:19:00;3.10;22.60
29093;DHT22;16167;48.768;14.984;2023-12-22T06:21:30;3.10;21.60
29093;DHT22;16167;48.768;14.984;2023-12-22T06:23:58;3.10;29.40
29093;DHT22;16167;48.768;14.984;2023-12-22T06:26:26;3.20;33.40
29093;DHT22;16167;48.768;14.984;2023-12-22T06:28:56;3.20;32.80
29093;DHT22;16167;48.768;14.984;2023-12-22T06:31:24;3.20;35.10
29093;DHT22;16167;48.768;14.984;2023-12-22T06:33:53;3.20;34.50
29093;DHT22;16167;48.768;14.984;2023-12-22T06:36:23;3.30;34.80
29093;DHT22;16167;48.768;14.984;2023-12-22T06:38:52;3.30;32.50
29093;DHT22;16167;48.768;14.984;2023-12-22T06:41:26;3.30;33.80
29093;DHT22;16167;48.768;14.984;2023-12-22T06:44:05;3.30;33.80
29093;DHT22;16167;48.768;14.984;2023-12-22T06:46:33;3.30;34.50
29093;DHT22;16167;48.768;14.984;2023-12-22T06:49:02;3.30;35.20
29093;DHT22;16167;48.768;14.984;2023-12-22T06:51:33;3.40;36.30
29093;DHT22;16167;48.768;14.984;2023-12-22T06:54:04;3.40;36.40
29093;DHT22;16167;48.768;14.984;2023-12-22T06:56:34;3.30;35.80
29093;DHT22;16167;48.768;14.984;2023-12-22T06:59:03;3.40;36.80
29093;DHT22;16167;48.768;14.984;2023-12-22T07:01:32;3.40;37.30
29093;DHT22;16167;48.768;14.984;2023-12-22T07:04:04;3.50;37.90
29093;DHT22;16167;48.768;14.984;2023-12-22T07:06:34;3.50;38.30
29093;DHT22;16167;48.768;14.984;2023-12-22T07:09:28;3.40;40.10
29093;DHT22;16167;48.768;14.984;2023-12-22T07:11:57;3.50;37.70
29093;DHT22;16167;48.768;14.984;2023-12-22T07:14:25;3.50;36.90
29093;DHT22;16167;48.768;14.984;2023-12-22T07:16:54;3.50;37.00
29093;DHT22;16167;48.768;14.984;2023-12-22T07:19:22;3.50;38.20
29093;DHT22;16167;48.768;14.984;2023-12-22T07:21:50;3.50;37.20
29093;DHT22;16167;48.768;14.984;2023-12-22T07:24:19;3.50;38.60
29093;DHT22;16167;48.768;14.984;2023-12-22T07:26:49;3.40;38.40
29093;DHT22;16167;48.768;14.984;2023-12-22T07:29:18;3.50;39.10
29093;DHT22;16167;48.768;14.984;2023-12-22T07:31:46;3.50;39.00
29093;DHT22;16167;48.768;14.984;2023-12-22T07:34:15;3.50;38.60
29093;DHT22;16167;48.768;14.984;2023-12-22T07:36:43;3.50;39.70
29093;DHT22;16167;48.768;14.984;2023-12-22T07:39:25;3.50;35.10
29093;DHT22;16167;48.768;14.984;2023-12-22T07:41:55;3.50;39.10
29093;DHT22;16167;48.768;14.984;2023-12-22T07:44:24;3.50;42.30
29093;DHT22;16167;48.768;14.984;2023-12-22T07:46:58;3.50;41.60
29093;DHT22;16167;48.768;14.984;2023-12-22T07:49:30;3.50;44.00
29093;DHT22;16167;48.768;14.984;2023-12-22T07:51:59;3.50;44.00
29093;DHT22;16167;48.768;14.984;2023-12-22T07:54:31;3.50;42.50
29093;DHT22;16167;48.768;14.984;2023-12-22T07:57:00;3.50;43.10
29093;DHT22;16167;48.768;14.984;2023-12-22T07:59:29;3.50;46.50
29093;DHT22;16167;48.768;14.984;2023-12-22T08:01:58;3.50;48.40
29093;DHT22;16167;48.768;14.984;2023-12-22T08:04:27;3.60;49.50
29093;DHT22;16167;48.768;14.984;2023-12-22T08:06:56;3.60;50.00
29093;DHT22;16167;48.768;14.984;2023-12-22T08:09:24;3.70;51.00
29093;DHT22;16167;48.768;14.984;2023-12-22T08:11:53;3.70;49.90
29093;DHT22;16167;48.768;14.984;2023-12-22T08:14:24;3.70;49.60
29093;DHT22;16167;48.768;14.984;2023-12-22T08:16:53;3.80;51.90
29093;DHT22;16167;48.768;14.984;2023-12-22T08:19:21;3.90;53.00
29093;DHT22;16167;48.768;14.984;2023-12-22T08:21:52;3.90;53.10
29093;DHT22;16167;48.768;14.984;2023-12-22T08:24:22;3.90;53.10
29093;DHT22;16167;48.768;14.984;2023-12-22T08:26:51;4.00;54.90
29093;DHT22;16167;48.768;14.984;2023-12-22T08:29:19;4.10;56.10
29093;DHT22;16167;48.768;14.984;2023-12-22T08:31:49;4.10;58.50
29093;DHT22;16167;48.768;14.984;2023-12-22T08:34:18;4.20;58.20
29093;DHT22;16167;48.768;14.984;2023-12-22T08:36:46;4.20;59.00
29093;DHT22;16167;48.768;14.984;2023-12-22T08:39:15;4.20;60.30
29093;DHT22;16167;48.768;14.984;2023-12-22T08:41:44;4.20;62.90
29093;DHT22;16167;48.768;14.984;2023-12-22T08:44:13;4.30;62.40
29093;DHT22;16167;48.768;14.984;2023-12-22T08:46:42;4.30;61.90
29093;DHT22;16167;48.768;14.984;2023-12-22T08:49:12;4.30;62.90
29093;DHT22;16167;48.768;14.984;2023-12-22T08:51:40;4.40;62.60
29093;DHT22;16167;48.768;14.984;2023-12-22T08:54:10;4.40;62.90
29093;DHT22;16167;48.768;14.984;2023-12-22T08:56:38;4.40;63.90
29093;DHT22;16167;48.768;14.984;2023-12-22T08:59:06;4.30;68.80
29093;DHT22;16167;48.768;14.984;2023-12-22T09:01:36;4.30;69.70
29093;DHT22;16167;48.768;14.984;2023-12-22T09:04:04;4.30;68.00
29093;DHT22;16167;48.768;14.984;2023-12-22T09:06:37;4.30;67.80
29093;DHT22;16167;48.768;14.984;2023-12-22T09:09:06;4.40;67.50
29093;DHT22;16167;48.768;14.984;2023-12-22T09:11:36;4.40;63.50
29093;DHT22;16167;48.768;14.984;2023-12-22T09:14:05;4.40;68.40
29093;DHT22;16167;48.768;14.984;2023-12-22T09:16:37;4.40;67.60
29093;DHT22;16167;48.768;14.984;2023-12-22T09:19:06;4.30;68.10
29093;DHT22;16167;48.768;14.984;2023-12-22T09:21:37;4.30;68.30
29093;DHT22;16167;48.768;14.984;2023-12-22T09:24:05;4.30;67.90
29093;DHT22;16167;48.768;14.984;2023-12-22T09:26:34;4.30;68.10
29093;DHT22;16167;48.768;14.984;2023-12-22T09:29:06;4.30;68.20
29093;DHT22;16167;48.768;14.984;2023-12-22T09:31:36;4.40;68.20
29093;DHT22;16167;48.768;14.984;2023-12-22T09:34:08;4.40;68.80
29093;DHT22;16167;48.768;14.984;2023-12-22T09:36:39;4.40;68.80
29093;DHT22;16167;48.768;14.984;2023-12-22T09:39:07;4.50;68.70
29093;DHT22;16167;48.768;14.984;2023-12-22T09:41:36;4.60;69.30
29093;DHT22;16167;48.768;14.984;2023-12-22T09:44:06;4.60;68.50
29093;DHT22;16167;48.768;14.984;2023-12-22T09:46:35;4.80;69.10
29093;DHT22;16167;48.768;14.984;2023-12-22T09:49:04;4.90;68.30
29093;DHT22;16167;48.768;14.984;2023-12-22T09:51:40;4.90;68.30
29093;DHT22;16167;48.768;14.984;2023-12-22T09:54:10;4.90;68.20
29093;DHT22;16167;48.768;14.984;2023-12-22T09:56:39;4.90;67.70
29093;DHT22;16167;48.768;14.984;2023-12-22T09:59:11;5.00;68.80
29093;DHT22;16167;48.768;14.984;2023-12-22T10:01:43;5.10;68.60
29093;DHT22;16167;48.768;14.984;2023-12-22T10:04:13;5.10;67.90
29093;DHT22;16167;48.768;14.984;2023-12-22T10:06:44;5.10;68.40
29093;DHT22;16167;48.768;14.984;2023-12-22T10:09:15;5.20;69.40
29093;DHT22;16167;48.768;14.984;2023-12-22T10:11:47;5.30;66.60
29093;DHT22;16167;48.768;14.984;2023-12-22T10:14:18;5.60;66.00
29093;DHT22;16167;48.768;14.984;2023-12-22T10:16:49;5.70;66.20
29093;DHT22;16167;48.768;14.984;2023-12-22T10:19:19;5.80;64.20
29093;DHT22;16167;48.768;14.984;2023-12-22T10:21:50;6.00;64.40
29093;DHT22;16167;48.768;14.984;2023-12-22T10:24:38;6.40;62.30
29093;DHT22;16167;48.768;14.984;2023-12-22T10:27:09;6.40;60.60
29093;DHT22;16167;48.768;14.984;2023-12-22T10:29:38;6.20;58.50
29093;DHT22;16167;48.768;14.984;2023-12-22T10:32:07;6.20;57.70
29093;DHT22;16167;48.768;14.984;2023-12-22T10:34:37;6.00;57.60
29093;DHT22;16167;48.768;14.984;2023-12-22T10:37:07;5.80;57.20
29093;DHT22;16167;48.768;14.984;2023-12-22T10:39:36;5.70;57.10
29093;DHT22;16167;48.768;14.984;2023-12-22T10:42:06;5.60;58.10
29093;DHT22;16167;48.768;14.984;2023-12-22T10:44:35;5.80;58.10
29093;DHT22;16167;48.768;14.984;2023-12-22T10:47:04;7.10;59.10
29093;DHT22;16167;48.768;14.984;2023-12-22T10:49:34;8.60;55.40
29093;DHT22;16167;48.768;14.984;2023-12-22T10:52:03;10.70;51.80
29093;DHT22;16167;48.768;14.984;2023-12-22T10:54:36;11.90;49.50
29093;DHT22;16167;48.768;14.984;2023-12-22T10:57:05;13.30;44.40
29093;DHT22;16167;48.768;14.984;2023-12-22T10:59:34;11.80;44.60
29093;DHT22;16167;48.768;14.984;2023-12-22T11:02:17;10.70;47.30
29093;DHT22;16167;48.768;14.984;2023-12-22T11:04:50;10.80;48.50
29093;DHT22;16167;48.768;14.984;2023-12-22T11:07:23;12.90;43.50
29093;DHT22;16167;48.768;14.984;2023-12-22T11:09:56;13.40;39.70
29093;DHT22;16167;48.768;14.984;2023-12-22T11:12:25;12.40;40.90
29093;DHT22;16167;48.768;14.984;2023-12-22T11:14:55;11.70;41.10
29093;DHT22;16167;48.768;14.984;2023-12-22T11:17:26;12.20;39.10
29093;DHT22;16167;48.768;14.984;2023-12-22T11:19:57;11.30;38.40
29093;DHT22;16167;48.768;14.984;2023-12-22T11:22:27;10.40;39.30
29093;DHT22;16167;48.768;14.984;2023-12-22T11:24:58;9.60;41.40
29093;DHT22;16167;48.768;14.984;2023-12-22T11:27:29;8.60;41.20
29093;DHT22;16167;48.768;14.984;2023-12-22T11:30:00;8.00;43.40
29093;DHT22;16167;48.768;14.984;2023-12-22T11:32:30;7.90;44.90
29093;DHT22;16167;48.768;14.984;2023-12-22T11:35:00;7.60;45.30
29093;DHT22;16167;48.768;14.984;2023-12-22T11:37:31;7.20;45.60
29093;DHT22;16167;48.768;14.984;2023-12-22T11:40:02;7.00;47.00
29093;DHT22;16167;48.768;14.984;2023-12-22T11:42:35;6.70;48.30
29093;DHT22;16167;48.768;14.984;2023-12-22T11:45:09;6.50;48.60
29093;DHT22;16167;48.768;14.984;2023-12-22T11:47:40;6.20;48.10
29093;DHT22;16167;48.768;14.984;2023-12-22T11:50:11;6.10;47.50
29093;DHT22;16167;48.768;14.984;2023-12-22T11:52:40;6.00;48.20
29093;DHT22;16167;48.768;14.984;2023-12-22T11:55:10;6.00;48.90
29093;DHT22;16167;48.768;14.984;2023-12-22T11:57:42;5.90;48.60
29093;DHT22;16167;48.768;14.984;2023-12-22T12:00:41;5.80;49.00
29093;DHT22;16167;48.768;14.984;2023-12-22T12:03:11;5.80;48.80
29093;DHT22;16167;48.768;14.984;2023-12-22T12:05:44;5.70;49.40
29093;DHT22;16167;48.768;14.984;2023-12-22T12:08:13;5.70;50.40
29093;DHT22;16167;48.768;14.984;2023-12-22T12:10:52;5.70;49.60
29093;DHT22;16167;48.768;14.984;2023-12-22T12:13:27;5.60;49.40
29093;DHT22;16167;48.768;14.984;2023-12-22T12:15:58;5.60;47.90
29093;DHT22;16167;48.768;14.984;2023-12-22T12:18:35;5.60;47.10
29093;DHT22;16167;48.768;14.984;2023-12-22T12:21:06;5.60;47.20
29093;DHT22;16167;48.768;14.984;2023-12-22T12:23:41;5.60;47.50
29093;DHT22;16167;48.768;14.984;2023-12-22T12:26:15;5.50;48.50
29093;DHT22;16167;48.768;14.984;2023-12-22T12:28:47;5.50;48.40
29093;DHT22;16167;48.768;14.984;2023-12-22T12:31:16;5.50;47.20
29093;DHT22;16167;48.768;14.984;2023-12-22T12:33:46;5.50;47.90
29093;DHT22;16167;48.768;14.984;2023-12-22T12:36:15;5.50;47.50
29093;DHT22;16167;48.768;14.984;2023-12-22T12:38:53;5.60;48.00
29093;DHT22;16167;48.768;14.984;2023-12-22T12:41:32;5.50;47.10
29093;DHT22;16167;48.768;14.984;2023-12-22T12:44:08;5.50;47.30
29093;DHT22;16167;48.768;14.984;2023-12-22T12:46:39;5.50;47.30
29093;DHT22;16167;48.768;14.984;2023-12-22T12:49:10;5.50;47.80
29093;DHT22;16167;48.768;14.984;2023-12-22T12:51:41;5.50;47.10
29093;DHT22;16167;48.768;14.984;2023-12-22T12:54:10;5.40;47.00
29093;DHT22;16167;48.768;14.984;2023-12-22T12:56:47;5.30;48.10
29093;DHT22;16167;48.768;14.984;2023-12-22T12:59:17;5.30;48.60
29093;DHT22;16167;48.768;14.984;2023-12-22T13:01:50;5.30;48.70
29093;DHT22;16167;48.768;14.984;2023-12-22T13:04:21;5.20;48.20
29093;DHT22;16167;48.768;14.984;2023-12-22T13:06:53;5.20;48.80
29093;DHT22;16167;48.768;14.984;2023-12-22T13:09:32;5.20;48.70
29093;DHT22;16167;48.768;14.984;2023-12-22T13:12:03;5.20;49.40
29093;DHT22;16167;48.768;14.984;2023-12-22T13:14:34;5.10;49.90
29093;DHT22;16167;48.768;14.984;2023-12-22T13:17:04;5.10;51.50
29093;DHT22;16167;48.768;14.984;2023-12-22T13:19:36;5.00;53.10
29093;DHT22;16167;48.768;14.984;2023-12-22T13:22:04;4.90;53.40
29093;DHT22;16167;48.768;14.984;2023-12-22T13:24:33;4.80;56.10
29093;DHT22;16167;48.768;14.984;2023-12-22T13:27:04;4.60;59.90
29093;DHT22;16167;48.768;14.984;2023-12-22T13:29:43;4.50;61.80
29093;DHT22;16167;48.768;14.984;2023-12-22T13:32:16;4.40;62.60
29093;DHT22;16167;48.768;14.984;2023-12-22T13:34:50;4.30;65.10
29093;DHT22;16167;48.768;14.984;2023-12-22T13:37:25;4.10;59.40
29093;DHT22;16167;48.768;14.984;2023-12-22T13:39:58;3.80;27.90
29093;DHT22;16167;48.768;14.984;2023-12-22T13:42:29;3.70;1.00
29093;DHT22;16167;48.768;14.984;2023-12-22T13:45:11;3.50;1.00
29093;DHT22;16167;48.768;14.984;2023-12-22T13:47:47;3.20;1.00
29093;DHT22;16167;48.768;14.984;2023-12-22T13:50:17;3.00;1.00
29093;DHT22;16167;48.768;14.984;2023-12-22T13:52:47;2.90;1.00
29093;DHT22;16167;48.768;14.984;2023-12-22T13:55:18;2.80;1.00
29093;DHT22;16167;48.768;14.984;2023-12-22T13:57:48;2.70;1.00
29093;DHT22;16167;48.768;14.984;2023-12-22T14:00:26;2.60;8.10
29093;DHT22;16167;48.768;14.984;2023-12-22T14:02:56;2.60;9.80
29093;DHT22;16167;48.768;14.984;2023-12-22T14:05:27;2.60;12.50
29093;DHT22;16167;48.768;14.984;2023-12-22T14:08:08;2.50;18.90
29093;DHT22;16167;48.768;14.984;2023-12-22T14:10:45;2.40;20.90
29093;DHT22;16167;48.768;14.984;2023-12-22T14:13:16;2.40;23.90
29093;DHT22;16167;48.768;14.984;2023-12-22T14:15:44;2.40;24.80
29093;DHT22;16167;48.768;14.984;2023-12-22T14:18:13;2.30;28.00
29093;DHT22;16167;48.768;14.984;2023-12-22T14:20:42;2.30;27.90
29093;DHT22;16167;48.768;14.984;2023-12-22T14:23:21;2.30;29.70
29093;DHT22;16167;48.768;14.984;2023-12-22T14:25:50;2.20;36.00
29093;DHT22;16167;48.768;14.984;2023-12-22T14:28:23;2.20;38.90
29093;DHT22;16167;48.768;14.984;2023-12-22T14:30:52;2.10;37.40
29093;DHT22;16167;48.768;14.984;2023-12-22T14:33:21;2.00;42.10
29093;DHT22;16167;48.768;14.984;2023-12-22T14:35:49;2.00;45.40
29093;DHT22;16167;48.768;14.984;2023-12-22T14:38:18;2.00;42.30
29093;DHT22;16167;48.768;14.984;2023-12-22T14:40:49;1.90;51.40
29093;DHT22;16167;48.768;14.984;2023-12-22T14:43:17;1.80;54.80
29093;DHT22;16167;48.768;14.984;2023-12-22T14:45:47;1.70;56.60
29093;DHT22;16167;48.768;14.984;2023-12-22T14:48:15;1.70;58.40
29093;DHT22;16167;48.768;14.984;2023-12-22T14:50:44;1.70;60.10
29093;DHT22;16167;48.768;14.984;2023-12-22T14:53:13;1.60;61.40
29093;DHT22;16167;48.768;14.984;2023-12-22T14:55:42;1.60;61.10
29093;DHT22;16167;48.768;14.984;2023-12-22T14:58:10;1.60;66.30
29093;DHT22;16167;48.768;14.984;2023-12-22T15:00:40;1.60;66.30
29093;DHT22;16167;48.768;14.984;2023-12-22T15:03:10;1.60;66.60
29093;DHT22;16167;48.768;14.984;2023-12-22T15:05:39;1.50;70.00
29093;DHT22;16167;48.768;14.984;2023-12-22T15:08:07;1.50;75.80
29093;DHT22;16167;48.768;14.984;2023-12-22T15:10:36;1.40;79.10
29093;DHT22;16167;48.768;14.984;2023-12-22T15:13:05;1.40;80.30
29093;DHT22;16167;48.768;14.984;2023-12-22T15:15:33;1.50;70.90
29093;DHT22;16167;48.768;14.984;2023-12-22T15:18:02;1.70;58.50
29093;DHT22;16167;48.768;14.984;2023-12-22T15:20:39;1.70;58.90
29093;DHT22;16167;48.768;14.984;2023-12-22T15:23:09;1.70;57.70
29093;DHT22;16167;48.768;14.984;2023-12-22T15:25:37;1.90;53.50
29093;DHT22;16167;48.768;14.984;2023-12-22T15:28:06;1.90;56.00
29093;DHT22;16167;48.768;14.984;2023-12-22T15:30:35;1.90;52.40
29093;DHT22;16167;48.768;14.984;2023-12-22T15:33:04;1.90;53.60
29093;DHT22;16167;48.768;14.984;2023-12-22T15:35:32;1.90;52.70
29093;DHT22;16167;48.768;14.984;2023-12-22T15:38:02;2.00;51.20
29093;DHT22;16167;48.768;14.984;2023-12-22T15:40:31;2.00;49.80
29093;DHT22;16167;48.768;14.984;2023-12-22T15:42:59;2.00;51.10
29093;DHT22;16167;48.768;14.984;2023-12-22T15:45:27;2.00;51.60
29093;DHT22;16167;48.768;14.984;2023-12-22T15:47:56;2.00;52.70
29093;DHT22;16167;48.768;14.984;2023-12-22T15:50:24;2.00;54.20